createdAt,value
2023-12-16T00:00:31.068Z,6.36
2023-12-16T00:03:10.307Z,6.33
2023-12-16T00:05:50.049Z,6.31
2023-12-16T00:08:35.263Z,6.28
2023-12-16T00:11:14.519Z,6.26
2023-12-16T00:13:54.212Z,6.22
2023-12-16T00:16:33.580Z,6.18
2023-12-16T00:19:12.860Z,6.16
2023-12-16T00:21:52.414Z,6.15
2023-12-16T00:24:36.711Z,6.16
2023-12-16T00:27:16.082Z,6.16
2023-12-16T00:29:55.396Z,6.16
2023-12-16T00:32:34.680Z,6.16
2023-12-16T00:35:14.826Z,6.16
2023-12-16T00:37:54.797Z,6.16
2023-12-16T00:40:39.620Z,6.17
2023-12-16T00:43:19.079Z,6.19
2023-12-16T00:45:58.349Z,6.23
2023-12-16T00:48:37.765Z,6.24
2023-12-16T00:51:17.079Z,6.23
2023-12-16T00:53:56.355Z,6.23
2023-12-16T00:56:40.657Z,6.20
2023-12-16T00:59:19.946Z,6.17
2023-12-16T01:01:59.344Z,6.14
2023-12-16T01:04:38.607Z,6.16
2023-12-16T01:07:18.312Z,6.19
2023-12-16T01:09:58.281Z,6.18
2023-12-16T01:12:42.867Z,6.17
2023-12-16T01:15:22.485Z,6.19
2023-12-16T01:18:02.029Z,6.17
2023-12-16T01:20:41.296Z,6.16
2023-12-16T01:23:20.630Z,6.16
2023-12-16T01:26:00.075Z,6.18
2023-12-16T01:28:44.388Z,6.26
2023-12-16T01:31:23.634Z,6.29
2023-12-16T01:34:03.144Z,6.24
2023-12-16T01:36:42.476Z,6.21
2023-12-16T01:39:21.749Z,6.16
2023-12-16T01:42:01.030Z,6.15
2023-12-16T01:44:45.494Z,6.17
2023-12-16T01:47:25.376Z,6.23
2023-12-16T01:50:05.975Z,6.25
2023-12-16T01:52:45.376Z,6.22
2023-12-16T01:55:24.898Z,6.17
2023-12-16T01:58:05.136Z,6.12
2023-12-16T02:00:50.961Z,6.08
2023-12-16T02:03:31.032Z,6.05
2023-12-16T02:06:10.753Z,6.02
2023-12-16T02:08:50.096Z,6.01
2023-12-16T02:11:29.341Z,6.01
2023-12-16T02:14:09.159Z,6.04
2023-12-16T02:16:53.771Z,6.10
2023-12-16T02:19:35.397Z,6.08
2023-12-16T02:22:14.681Z,6.02
2023-12-16T02:24:59.957Z,5.97
2023-12-16T02:27:39.709Z,5.93
2023-12-16T02:30:22.900Z,5.91
2023-12-16T02:33:02.244Z,5.89
2023-12-16T02:35:41.532Z,5.89
2023-12-16T02:38:20.808Z,5.93
2023-12-16T02:41:05.127Z,5.97
2023-12-16T02:43:44.699Z,6.01
2023-12-16T02:46:24.046Z,6.00
2023-12-16T02:49:03.296Z,5.99
2023-12-16T02:51:42.542Z,5.99
2023-12-16T02:54:21.823Z,5.99
2023-12-16T02:57:06.204Z,5.95
2023-12-16T02:59:45.405Z,5.92
2023-12-16T03:02:24.776Z,5.93
2023-12-16T03:05:04.064Z,5.94
2023-12-16T03:07:43.340Z,5.92
2023-12-16T03:10:22.611Z,5.90
2023-12-16T03:13:06.982Z,5.90
2023-12-16T03:15:46.477Z,5.94
2023-12-16T03:18:25.825Z,5.94
2023-12-16T03:21:05.320Z,5.93
2023-12-16T03:23:44.659Z,5.96
2023-12-16T03:26:23.958Z,5.99
2023-12-16T03:29:08.296Z,5.96
2023-12-16T03:31:47.619Z,5.93
2023-12-16T03:34:27.376Z,5.88
2023-12-16T03:37:06.803Z,5.86
2023-12-16T03:39:48.144Z,5.83
2023-12-16T03:42:27.444Z,5.81
2023-12-16T03:45:12.594Z,5.83
2023-12-16T03:47:52.685Z,5.80
2023-12-16T03:50:32.109Z,5.78
2023-12-16T03:53:11.406Z,5.77
2023-12-16T03:55:50.884Z,5.74
2023-12-16T03:58:30.208Z,5.71
2023-12-16T04:01:15.853Z,5.71
2023-12-16T04:03:55.234Z,5.71
2023-12-16T04:06:34.498Z,5.69
2023-12-16T04:09:14.147Z,5.69
2023-12-16T04:11:56.699Z,5.71
2023-12-16T04:14:35.960Z,5.71
2023-12-16T04:17:20.405Z,5.73
2023-12-16T04:20:00.864Z,5.73
2023-12-16T04:22:40.293Z,5.71
2023-12-16T04:25:19.654Z,5.72
2023-12-16T04:27:59.671Z,5.72
2023-12-16T04:30:39.053Z,5.71
2023-12-16T04:33:23.505Z,5.71
2023-12-16T04:36:02.918Z,5.71
2023-12-16T04:38:44.205Z,5.72
2023-12-16T04:41:23.480Z,5.73
2023-12-16T04:44:02.744Z,5.79
2023-12-16T04:46:42.165Z,5.79
2023-12-16T04:49:26.700Z,5.84
2023-12-16T04:52:05.998Z,5.91
2023-12-16T04:54:45.325Z,5.98
2023-12-16T04:57:24.588Z,5.96
2023-12-16T05:00:04.250Z,5.90
2023-12-16T05:02:44.402Z,5.86
2023-12-16T05:05:28.720Z,5.84
2023-12-16T05:08:07.986Z,5.80
2023-12-16T05:10:49.987Z,5.76
2023-12-16T05:13:29.547Z,5.74
2023-12-16T05:16:09.952Z,5.72
2023-12-16T05:18:49.334Z,5.70
2023-12-16T05:21:33.733Z,5.70
2023-12-16T05:24:13.245Z,5.72
2023-12-16T05:26:52.790Z,5.72
2023-12-16T05:29:32.044Z,5.73
2023-12-16T05:32:11.916Z,5.74
2023-12-16T05:34:51.349Z,5.76
2023-12-16T05:37:35.711Z,5.75
2023-12-16T05:40:16.273Z,5.73
2023-12-16T05:42:56.383Z,5.73
2023-12-16T05:45:35.811Z,5.74
2023-12-16T05:48:15.149Z,5.75
2023-12-16T05:50:54.502Z,5.82
2023-12-16T05:53:41.446Z,5.93
2023-12-16T05:56:21.031Z,5.91
2023-12-16T05:59:00.302Z,5.89
2023-12-16T06:01:39.648Z,5.89
2023-12-16T06:04:19.149Z,5.88
2023-12-16T06:06:58.554Z,5.85
2023-12-16T06:09:43.102Z,5.84
2023-12-16T06:12:22.364Z,5.79
2023-12-16T06:15:01.845Z,5.78
2023-12-16T06:17:41.637Z,5.74
2023-12-16T06:20:21.284Z,5.71
2023-12-16T06:23:00.590Z,5.69
2023-12-16T06:25:44.935Z,5.69
2023-12-16T06:28:24.299Z,5.68
2023-12-16T06:31:03.791Z,5.67
2023-12-16T06:33:43.182Z,5.67
2023-12-16T06:36:22.736Z,5.66
2023-12-16T06:39:02.045Z,5.67
2023-12-16T06:41:46.401Z,5.67
2023-12-16T06:44:25.688Z,5.68
2023-12-16T06:47:04.995Z,5.72
2023-12-16T06:49:44.698Z,5.72
2023-12-16T06:52:24.586Z,5.73
2023-12-16T06:55:03.981Z,5.73
2023-12-16T06:57:48.371Z,5.74
2023-12-16T07:00:27.845Z,5.71
2023-12-16T07:03:07.452Z,5.67
2023-12-16T07:05:46.793Z,5.68
2023-12-16T07:08:26.135Z,5.67
2023-12-16T07:11:06.078Z,5.66
2023-12-16T07:13:50.426Z,5.64
2023-12-16T07:16:33.190Z,5.66
2023-12-16T07:19:12.550Z,5.66
2023-12-16T07:21:51.906Z,5.66
2023-12-16T07:24:31.248Z,5.68
2023-12-16T07:27:10.533Z,5.63
2023-12-16T07:29:54.895Z,5.60
2023-12-16T07:32:34.319Z,5.61
2023-12-16T07:35:15.534Z,5.63
2023-12-16T07:37:54.884Z,5.67
2023-12-16T07:40:34.435Z,5.68
2023-12-16T07:43:13.766Z,5.68
2023-12-16T07:45:58.265Z,5.67
2023-12-16T07:48:37.712Z,5.67
2023-12-16T07:51:24.797Z,5.69
2023-12-16T07:54:04.095Z,5.75
2023-12-16T07:56:43.377Z,5.74
2023-12-16T07:59:22.796Z,5.71
2023-12-16T08:02:12.380Z,5.75
2023-12-16T08:04:51.719Z,5.74
2023-12-16T08:07:31.032Z,5.73
2023-12-16T08:10:10.754Z,5.74
2023-12-16T08:12:50.143Z,5.75
2023-12-16T08:15:29.419Z,5.82
2023-12-16T08:18:16.048Z,5.82
2023-12-16T08:20:56.154Z,5.81
2023-12-16T08:23:35.505Z,5.79
2023-12-16T08:26:17.762Z,5.78
2023-12-16T08:28:57.050Z,5.78
2023-12-16T08:31:36.338Z,5.79
2023-12-16T08:34:20.883Z,5.79
2023-12-16T08:37:00.391Z,5.84
2023-12-16T08:39:40.223Z,5.86
2023-12-16T08:42:19.563Z,5.88
2023-12-16T08:44:58.942Z,5.88
2023-12-16T08:47:38.562Z,5.91
2023-12-16T08:50:25.039Z,6.02
2023-12-16T08:53:04.360Z,6.04
2023-12-16T08:55:43.794Z,6.12
2023-12-16T08:58:23.171Z,6.14
2023-12-16T09:01:02.742Z,6.14
2023-12-16T09:03:43.221Z,6.15
2023-12-16T09:06:27.900Z,6.15
2023-12-16T09:09:08.740Z,6.18
2023-12-16T09:11:51.641Z,6.21
2023-12-16T09:14:31.256Z,6.23
2023-12-16T09:17:10.635Z,6.31
2023-12-16T09:19:49.995Z,6.38
2023-12-16T09:22:34.436Z,6.45
2023-12-16T09:25:15.253Z,6.50
2023-12-16T09:27:54.672Z,6.54
2023-12-16T09:30:34.001Z,6.55
2023-12-16T09:33:14.192Z,6.63
2023-12-16T09:35:53.563Z,6.70
2023-12-16T09:38:37.902Z,6.70
2023-12-16T09:41:31.018Z,6.74
2023-12-16T09:44:10.646Z,6.73
2023-12-16T09:46:52.545Z,6.78
2023-12-16T09:49:34.883Z,6.76
2023-12-16T09:52:15.165Z,6.75
2023-12-16T09:54:59.757Z,6.75
2023-12-16T09:57:43.171Z,6.74
2023-12-16T10:00:25.058Z,6.74
2023-12-16T10:03:05.177Z,6.74
2023-12-16T10:05:44.867Z,6.73
2023-12-16T10:08:24.307Z,6.77
2023-12-16T10:11:14.507Z,6.80
2023-12-16T10:14:05.944Z,6.86
2023-12-16T10:16:49.330Z,7.01
2023-12-16T10:19:29.181Z,7.05
2023-12-16T10:22:08.768Z,7.10
2023-12-16T10:24:49.091Z,7.15
2023-12-16T10:27:34.959Z,7.21
2023-12-16T10:30:15.926Z,7.23
2023-12-16T10:32:55.305Z,7.27
2023-12-16T10:35:35.292Z,7.32
2023-12-16T10:38:15.198Z,7.35
2023-12-16T10:40:54.500Z,7.36
2023-12-16T10:43:40.089Z,7.36
2023-12-16T10:46:24.950Z,7.34
2023-12-16T10:49:11.039Z,7.33
2023-12-16T10:51:52.918Z,7.36
2023-12-16T10:54:40.255Z,7.41
2023-12-16T10:57:27.507Z,7.47
2023-12-16T11:00:15.368Z,7.50
2023-12-16T11:03:09.796Z,7.57
2023-12-16T11:05:54.885Z,7.62
2023-12-16T11:08:36.064Z,7.70
2023-12-16T11:11:16.325Z,7.73
2023-12-16T11:13:57.437Z,7.77
2023-12-16T11:17:12.994Z,7.81
2023-12-16T11:20:04.722Z,7.83
2023-12-16T11:22:53.657Z,8.01
2023-12-16T11:25:34.135Z,8.26
2023-12-16T11:28:14.344Z,8.33
2023-12-16T11:30:53.896Z,8.43
2023-12-16T11:33:50.458Z,8.57
2023-12-16T11:36:59.286Z,8.64
2023-12-16T11:39:47.356Z,8.65
2023-12-16T11:43:04.980Z,8.56
2023-12-16T11:45:46.295Z,8.45
2023-12-16T11:48:26.281Z,8.47
2023-12-16T11:51:11.031Z,8.64
2023-12-16T11:53:50.506Z,9.10
2023-12-16T11:56:29.766Z,9.38
2023-12-16T11:59:11.048Z,10.65
2023-12-16T12:01:51.984Z,13.78
2023-12-16T12:04:31.441Z,13.61
2023-12-16T12:07:16.414Z,13.58
2023-12-16T12:09:56.057Z,13.07
2023-12-16T12:12:35.327Z,10.21
2023-12-16T12:15:18.526Z,9.33
2023-12-16T12:17:59.523Z,8.96
2023-12-16T12:20:38.987Z,8.87
2023-12-16T12:23:24.134Z,8.79
2023-12-16T12:26:04.960Z,8.78
2023-12-16T12:28:44.300Z,8.75
2023-12-16T12:31:24.123Z,8.78
2023-12-16T12:34:03.678Z,8.74
2023-12-16T12:36:43.119Z,8.69
2023-12-16T12:39:29.110Z,8.70
2023-12-16T12:42:09.380Z,8.71
2023-12-16T12:45:00.817Z,8.68
2023-12-16T12:47:40.795Z,8.72
2023-12-16T12:50:28.008Z,8.67
2023-12-16T12:53:20.279Z,8.59
2023-12-16T12:56:08.951Z,8.47
2023-12-16T12:58:48.591Z,8.37
2023-12-16T13:01:28.406Z,8.33
2023-12-16T13:04:07.984Z,8.32
2023-12-16T13:06:47.663Z,8.32
2023-12-16T13:09:27.050Z,8.32
2023-12-16T13:12:11.985Z,8.33
2023-12-16T13:14:52.334Z,8.32
2023-12-16T13:17:31.764Z,8.36
2023-12-16T13:20:11.813Z,8.36
2023-12-16T13:22:52.228Z,8.51
2023-12-16T13:25:31.555Z,9.10
2023-12-16T13:28:16.200Z,9.21
2023-12-16T13:30:57.610Z,10.58
2023-12-16T13:33:37.961Z,13.11
2023-12-16T13:36:33.790Z,12.98
2023-12-16T13:39:19.303Z,12.31
2023-12-16T13:41:58.652Z,12.23
2023-12-16T13:44:43.080Z,12.92
2023-12-16T13:47:22.363Z,14.88
2023-12-16T13:50:01.672Z,15.03
2023-12-16T13:52:41.030Z,15.02
2023-12-16T13:55:20.729Z,15.08
2023-12-16T13:57:59.993Z,14.95
2023-12-16T14:00:44.438Z,14.82
2023-12-16T14:03:23.808Z,14.61
2023-12-16T14:06:04.964Z,14.52
2023-12-16T14:08:44.378Z,14.05
2023-12-16T14:11:23.754Z,13.83
2023-12-16T14:14:03.005Z,13.85
2023-12-16T14:16:47.424Z,13.73
2023-12-16T14:19:26.808Z,13.60
2023-12-16T14:22:06.118Z,13.50
2023-12-16T14:24:45.574Z,13.51
2023-12-16T14:27:24.862Z,13.48
2023-12-16T14:30:04.583Z,13.47
2023-12-16T14:32:49.074Z,13.53
2023-12-16T14:35:28.458Z,13.52
2023-12-16T14:38:08.120Z,13.47
2023-12-16T14:40:47.427Z,13.33
2023-12-16T14:43:26.715Z,12.95
2023-12-16T14:46:06.445Z,10.82
2023-12-16T14:48:50.877Z,9.14
2023-12-16T14:51:30.296Z,8.75
2023-12-16T14:54:09.638Z,8.57
2023-12-16T14:56:49.287Z,8.36
2023-12-16T14:59:32.471Z,8.22
2023-12-16T15:02:12.515Z,8.07
2023-12-16T15:04:56.999Z,7.91
2023-12-16T15:07:36.516Z,7.76
2023-12-16T15:10:17.117Z,7.64
2023-12-16T15:12:56.429Z,7.49
2023-12-16T15:15:35.823Z,7.38
2023-12-16T15:18:15.339Z,7.28
2023-12-16T15:21:00.858Z,7.16
2023-12-16T15:23:40.251Z,7.06
2023-12-16T15:26:19.691Z,6.87
2023-12-16T15:28:59.672Z,6.77
2023-12-16T15:31:39.217Z,6.73
2023-12-16T15:34:21.840Z,6.66
2023-12-16T15:37:12.042Z,6.59
2023-12-16T15:39:56.967Z,6.48
2023-12-16T15:42:36.336Z,6.39
2023-12-16T15:45:16.969Z,6.23
2023-12-16T15:47:56.473Z,6.10
2023-12-16T15:50:36.013Z,6.00
2023-12-16T15:53:21.559Z,5.88
2023-12-16T15:56:02.144Z,5.78
2023-12-16T15:58:42.767Z,5.70
2023-12-16T16:01:22.052Z,5.64
2023-12-16T16:04:02.679Z,5.60
2023-12-16T16:06:43.588Z,5.52
2023-12-16T16:09:28.422Z,5.47
2023-12-16T16:12:08.714Z,5.42
2023-12-16T16:14:48.317Z,5.35
2023-12-16T16:17:27.789Z,5.30
2023-12-16T16:20:09.562Z,5.26
2023-12-16T16:22:50.108Z,5.21
2023-12-16T16:25:34.563Z,5.16
2023-12-16T16:28:14.051Z,5.08
2023-12-16T16:30:54.116Z,5.04
2023-12-16T16:33:33.661Z,5.00
2023-12-16T16:36:16.086Z,4.95
2023-12-16T16:38:55.488Z,4.88
2023-12-16T16:41:40.013Z,4.83
2023-12-16T16:44:19.315Z,4.74
2023-12-16T16:46:58.941Z,4.66
2023-12-16T16:49:38.353Z,4.51
2023-12-16T16:52:18.650Z,4.34
2023-12-16T16:54:58.235Z,4.29
2023-12-16T16:57:44.330Z,4.28
2023-12-16T17:00:25.559Z,4.26
2023-12-16T17:03:05.361Z,4.24
2023-12-16T17:05:44.703Z,4.24
2023-12-16T17:08:24.088Z,4.21
2023-12-16T17:11:06.483Z,4.16
2023-12-16T17:13:50.801Z,4.11
2023-12-16T17:16:30.303Z,4.09
2023-12-16T17:19:10.405Z,4.05
2023-12-16T17:21:50.455Z,4.00
2023-12-16T17:24:29.736Z,3.98
2023-12-16T17:27:11.417Z,3.94
2023-12-16T17:29:55.845Z,3.93
2023-12-16T17:32:35.301Z,3.89
2023-12-16T17:35:15.682Z,3.88
2023-12-16T17:37:54.972Z,3.87
2023-12-16T17:40:34.203Z,3.82
2023-12-16T17:43:13.498Z,3.58
2023-12-16T17:45:57.896Z,3.57
2023-12-16T17:48:37.865Z,3.57
2023-12-16T17:51:17.216Z,3.56
2023-12-16T17:53:57.355Z,3.52
2023-12-16T17:56:36.694Z,3.50
2023-12-16T17:59:16.033Z,3.42
2023-12-16T18:02:00.395Z,3.41
2023-12-16T18:04:40.061Z,3.41
2023-12-16T18:07:19.547Z,3.37
2023-12-16T18:09:58.834Z,3.36
2023-12-16T18:12:38.074Z,3.24
2023-12-16T18:15:17.965Z,3.15
2023-12-16T18:18:02.565Z,3.12
2023-12-16T18:20:59.619Z,3.09
2023-12-16T18:23:41.202Z,2.99
2023-12-16T18:26:22.043Z,2.96
2023-12-16T18:29:01.314Z,2.95
2023-12-16T18:31:40.666Z,2.94
2023-12-16T18:34:25.657Z,2.93
2023-12-16T18:37:04.950Z,2.94
2023-12-16T18:39:44.193Z,2.96
2023-12-16T18:42:24.364Z,2.94
2023-12-16T18:45:03.681Z,2.93
2023-12-16T18:47:43.278Z,2.92
2023-12-16T18:50:27.917Z,2.91
2023-12-16T18:53:07.170Z,2.88
2023-12-16T18:55:46.435Z,2.84
2023-12-16T18:58:25.698Z,2.79
2023-12-16T19:01:04.991Z,2.79
2023-12-16T19:03:44.371Z,2.79
2023-12-16T19:06:28.912Z,2.76
2023-12-16T19:09:08.201Z,2.74
2023-12-16T19:11:47.532Z,2.73
2023-12-16T19:14:26.969Z,2.68
2023-12-16T19:17:06.198Z,2.63
2023-12-16T19:19:47.284Z,2.59
2023-12-16T19:22:31.703Z,2.54
2023-12-16T19:25:12.672Z,2.52
2023-12-16T19:27:52.002Z,2.50
2023-12-16T19:30:31.276Z,2.50
2023-12-16T19:33:10.861Z,2.49
2023-12-16T19:35:50.261Z,2.48
2023-12-16T19:38:34.609Z,2.46
2023-12-16T19:41:14.279Z,2.41
2023-12-16T19:43:53.530Z,2.40
2023-12-16T19:46:32.799Z,2.40
2023-12-16T19:49:12.398Z,2.35
2023-12-16T19:51:52.006Z,2.32
2023-12-16T19:54:36.386Z,2.35
2023-12-16T19:57:15.758Z,2.35
2023-12-16T19:59:55.157Z,2.29
2023-12-16T20:02:34.576Z,2.24
2023-12-16T20:05:15.124Z,2.18
2023-12-16T20:07:54.765Z,2.13
2023-12-16T20:10:44.258Z,2.09
2023-12-16T20:13:25.300Z,2.02
2023-12-16T20:16:04.688Z,2.00
2023-12-16T20:18:44.098Z,2.00
2023-12-16T20:21:23.492Z,1.98
2023-12-16T20:24:02.820Z,1.96
2023-12-16T20:26:47.211Z,1.94
2023-12-16T20:29:26.532Z,1.91
2023-12-16T20:32:05.818Z,1.88
2023-12-16T20:34:45.173Z,1.83
2023-12-16T20:37:26.312Z,1.80
2023-12-16T20:40:16.417Z,1.84
2023-12-16T20:43:00.727Z,1.83
2023-12-16T20:45:40.436Z,1.84
2023-12-16T20:48:19.994Z,1.86
2023-12-16T20:51:00.086Z,1.89
2023-12-16T20:53:39.401Z,1.88
2023-12-16T20:56:18.761Z,1.89
2023-12-16T20:59:04.952Z,1.87
2023-12-16T21:01:44.227Z,1.82
2023-12-16T21:04:23.730Z,1.80
2023-12-16T21:07:03.059Z,1.78
2023-12-16T21:09:43.275Z,1.76
2023-12-16T21:12:23.593Z,1.75
2023-12-16T21:15:08.390Z,1.73
2023-12-16T21:17:47.828Z,1.71
2023-12-16T21:20:27.319Z,1.73
2023-12-16T21:23:06.572Z,1.67
2023-12-16T21:25:45.840Z,1.61
2023-12-16T21:28:25.087Z,1.57
2023-12-16T21:31:09.445Z,1.48
2023-12-16T21:33:48.788Z,1.44
2023-12-16T21:36:30.410Z,1.43
2023-12-16T21:39:10.248Z,1.41
2023-12-16T21:41:49.580Z,1.43
2023-12-16T21:44:30.211Z,1.51
2023-12-16T21:47:14.767Z,1.54
2023-12-16T21:49:54.229Z,1.56
2023-12-16T21:52:33.630Z,1.61
2023-12-16T21:55:13.565Z,1.62
2023-12-16T21:57:52.828Z,1.60
2023-12-16T22:00:32.141Z,1.59
2023-12-16T22:03:16.966Z,1.54
2023-12-16T22:05:56.353Z,1.51
2023-12-16T22:08:39.433Z,1.56
2023-12-16T22:11:25.598Z,1.59
2023-12-16T22:14:05.953Z,1.64
2023-12-16T22:16:45.643Z,1.66
2023-12-16T22:19:30.174Z,1.65
2023-12-16T22:22:09.579Z,1.65
2023-12-16T22:24:48.832Z,1.65
2023-12-16T22:27:28.136Z,1.64
2023-12-16T22:30:08.051Z,1.63
2023-12-16T22:32:47.702Z,1.65
2023-12-16T22:35:32.078Z,1.64
2023-12-16T22:38:11.335Z,1.61
2023-12-16T22:40:50.580Z,1.57
2023-12-16T22:43:30.325Z,1.48
2023-12-16T22:46:09.604Z,1.45
2023-12-16T22:48:49.132Z,1.42
2023-12-16T22:51:33.807Z,1.37
2023-12-16T22:54:13.214Z,1.33
2023-12-16T22:56:52.584Z,1.31
2023-12-16T22:59:31.866Z,1.31
2023-12-16T23:02:11.531Z,1.26
2023-12-16T23:04:50.894Z,1.26
2023-12-16T23:07:35.294Z,1.31
2023-12-16T23:10:24.619Z,1.37
2023-12-16T23:13:05.280Z,1.52
2023-12-16T23:15:44.544Z,1.47
2023-12-16T23:18:23.985Z,1.44
2023-12-16T23:21:04.965Z,1.43
2023-12-16T23:23:49.474Z,1.42
2023-12-16T23:26:29.600Z,1.42
2023-12-16T23:29:08.838Z,1.42
2023-12-16T23:31:48.263Z,1.38
2023-12-16T23:34:27.679Z,1.35
2023-12-16T23:37:06.965Z,1.30
2023-12-16T23:39:51.291Z,1.28
2023-12-16T23:42:30.587Z,1.27
2023-12-16T23:45:09.977Z,1.24
2023-12-16T23:47:49.550Z,1.23
2023-12-16T23:50:28.946Z,1.21
2023-12-16T23:53:08.216Z,1.17
2023-12-16T23:55:52.581Z,1.15
2023-12-16T23:58:31.888Z,1.17
